Time;durP1;ratioP1;P1;durP2;ratioP2;P2;SDS_P1;SDS_P2;PMS_P1;PMS_P2;Temp;Humidity;BMP_temperature;BMP_pressure;BME280_temperature;BME280_humidity;BME280_pressure;Samples;Min_cycle;Max_cycle;Signal;HPM_P1;HPM_P2
2023/06/11 00:00:26;;;;;;;10.75;8.50;;;15.70;99.90;;;;;;4996532;28;20026;-77
2023/06/11 00:02:56;;;;;;;9.20;8.27;;;15.80;99.90;;;;;;4997292;28;21337;-76
2023/06/11 00:05:23;;;;;;;8.95;8.05;;;15.70;99.90;;;;;;4995966;28;20511;-76
2023/06/11 00:07:51;;;;;;;10.32;8.80;;;15.60;99.90;;;;;;4996596;28;20025;-76
2023/06/11 00:10:17;;;;;;;10.02;8.65;;;15.60;99.90;;;;;;4995760;28;20584;-76
2023/06/11 00:12:43;;;;;;;9.10;8.20;;;15.60;99.90;;;;;;4995892;28;20095;-77
2023/06/11 00:15:09;;;;;;;10.38;8.98;;;15.60;99.90;;;;;;4996812;28;20179;-76
2023/06/11 00:17:35;;;;;;;10.50;9.40;;;15.50;99.90;;;;;;4996041;28;20065;-76
2023/06/11 00:20:09;;;;;;;11.00;9.20;;;15.50;99.90;;;;;;4996243;28;20118;-77
2023/06/11 00:22:37;;;;;;;10.70;9.70;;;15.50;99.90;;;;;;4996634;28;20038;-77
2023/06/11 00:25:03;;;;;;;10.73;9.60;;;15.40;99.90;;;;;;4996694;28;20343;-76
2023/06/11 00:27:28;;;;;;;10.35;9.25;;;15.40;99.90;;;;;;4996030;28;20034;-76
2023/06/11 00:29:54;;;;;;;11.82;9.70;;;15.40;99.90;;;;;;4995926;28;20446;-76
2023/06/11 00:32:20;;;;;;;9.70;8.70;;;15.40;99.90;;;;;;4996721;28;21310;-79
2023/06/11 00:34:45;;;;;;;10.38;9.27;;;15.40;99.90;;;;;;4996174;28;20033;-76
2023/06/11 00:37:11;;;;;;;12.95;10.07;;;15.40;99.90;;;;;;4995744;28;20045;-77
2023/06/11 00:39:37;;;;;;;9.85;8.85;;;15.30;99.90;;;;;;4995575;28;20030;-79
2023/06/11 00:42:03;;;;;;;11.63;8.73;;;15.30;99.90;;;;;;4996953;28;20033;-78
2023/06/11 00:44:29;;;;;;;9.93;8.80;;;15.30;99.90;;;;;;4995257;28;20045;-76
2023/06/11 00:46:57;;;;;;;11.50;9.48;;;15.20;99.90;;;;;;4994891;28;20513;-78
2023/06/11 00:49:23;;;;;;;10.95;9.02;;;15.20;99.90;;;;;;4995708;28;20030;-76
2023/06/11 00:51:49;;;;;;;11.07;9.48;;;15.10;99.90;;;;;;4996070;28;20669;-76
2023/06/11 00:54:16;;;;;;;11.25;9.32;;;15.10;99.90;;;;;;4996363;28;20045;-76
2023/06/11 00:56:47;;;;;;;11.02;9.82;;;15.10;99.90;;;;;;4994655;28;20421;-77
2023/06/11 00:59:15;;;;;;;10.38;9.20;;;15.10;99.90;;;;;;4995337;28;20030;-76
2023/06/11 01:01:45;;;;;;;12.85;9.82;;;15.10;99.90;;;;;;4995718;28;20486;-76
2023/06/11 01:04:23;;;;;;;10.65;9.45;;;15.00;99.90;;;;;;4995886;28;20037;-76
2023/06/11 01:06:51;;;;;;;11.95;9.60;;;15.00;99.90;;;;;;4996270;28;20100;-78
2023/06/11 01:09:20;;;;;;;10.98;9.85;;;15.00;99.90;;;;;;4997796;28;20038;-76
2023/06/11 01:11:48;;;;;;;11.57;9.75;;;15.00;99.90;;;;;;4997460;28;20091;-76
2023/06/11 01:14:17;;;;;;;11.23;9.77;;;15.00;99.90;;;;;;4995411;28;20034;-76
2023/06/11 01:17:02;;;;;;;10.82;9.70;;;15.00;99.90;;;;;;4995880;28;20038;-77
2023/06/11 01:19:44;;;;;;;13.38;9.73;;;15.00;99.90;;;;;;4996042;28;20036;-77
2023/06/11 01:22:15;;;;;;;11.63;9.85;;;15.00;99.90;;;;;;4995799;28;20041;-76
2023/06/11 01:25:14;;;;;;;11.38;10.07;;;15.00;99.90;;;;;;4995697;28;20026;-76
2023/06/11 01:28:02;;;;;;;13.15;10.02;;;15.00;99.90;;;;;;4995003;28;20053;-78
2023/06/11 01:30:30;;;;;;;11.13;9.93;;;15.00;99.90;;;;;;4995018;28;20155;-76
2023/06/11 01:32:57;;;;;;;12.18;10.63;;;14.90;99.90;;;;;;4994652;28;20046;-75
2023/06/11 01:35:23;;;;;;;11.30;10.13;;;14.90;99.90;;;;;;4995457;28;20030;-78
2023/06/11 01:37:55;;;;;;;11.95;10.60;;;14.90;99.90;;;;;;4995695;28;20077;-77
2023/06/11 01:40:27;;;;;;;12.90;10.50;;;14.90;99.90;;;;;;4995174;28;20040;-76
2023/06/11 01:42:54;;;;;;;11.82;10.60;;;14.90;99.90;;;;;;4995012;28;20060;-75
2023/06/11 01:45:22;;;;;;;14.65;10.80;;;14.90;99.90;;;;;;4994518;28;21434;-76
2023/06/11 01:47:52;;;;;;;12.13;10.82;;;14.90;99.90;;;;;;4995215;28;20045;-76
2023/06/11 01:50:18;;;;;;;11.10;9.95;;;14.90;99.90;;;;;;4993989;28;20045;-76
2023/06/11 01:52:45;;;;;;;12.00;10.70;;;14.90;99.90;;;;;;4994622;28;21315;-77
2023/06/11 01:55:11;;;;;;;13.48;10.82;;;14.80;99.90;;;;;;4994644;28;20069;-79
2023/06/11 01:57:37;;;;;;;14.88;10.07;;;14.80;99.90;;;;;;4996068;28;20042;-77
2023/06/11 02:00:14;;;;;;;11.13;10.02;;;14.80;99.90;;;;;;4997150;28;20056;-78
2023/06/11 02:02:43;;;;;;;13.25;10.68;;;14.80;99.90;;;;;;4998313;28;20034;-76
2023/06/11 02:05:09;;;;;;;16.35;10.63;;;14.80;99.90;;;;;;4998324;28;20048;-76
2023/06/11 02:07:36;;;;;;;11.93;9.75;;;14.80;99.90;;;;;;4998991;28;20030;-76
2023/06/11 02:10:01;;;;;;;11.93;10.73;;;14.80;99.90;;;;;;4998362;28;20438;-78
2023/06/11 02:12:27;;;;;;;12.98;11.32;;;14.70;99.90;;;;;;4999222;28;20037;-76
2023/06/11 02:14:52;;;;;;;15.32;11.70;;;14.70;99.90;;;;;;4998445;28;20113;-77
2023/06/11 02:17:18;;;;;;;12.40;11.07;;;14.70;99.90;;;;;;4999126;28;20018;-77
2023/06/11 02:19:43;;;;;;;15.52;11.75;;;14.70;99.90;;;;;;4998556;28;20091;-76
2023/06/11 02:22:14;;;;;;;15.40;11.52;;;14.60;99.90;;;;;;4998591;28;20509;-77
2023/06/11 02:24:39;;;;;;;13.52;11.68;;;14.60;99.90;;;;;;4999286;28;20045;-76
2023/06/11 02:27:06;;;;;;;12.90;11.60;;;14.60;99.90;;;;;;4997047;28;20030;-76
2023/06/11 02:29:31;;;;;;;14.68;11.88;;;14.60;99.90;;;;;;4998883;28;20096;-76
2023/06/11 02:31:57;;;;;;;12.40;11.13;;;14.60;99.90;;;;;;4999278;28;20733;-76
2023/06/11 02:34:23;;;;;;;13.93;11.57;;;14.50;99.90;;;;;;4997970;28;20050;-77
2023/06/11 02:36:49;;;;;;;14.50;12.15;;;14.50;99.90;;;;;;4998865;28;20040;-75
2023/06/11 02:39:14;;;;;;;14.02;12.32;;;14.50;99.90;;;;;;4998981;28;20038;-76
2023/06/11 02:41:40;;;;;;;14.48;12.73;;;14.50;99.90;;;;;;4998739;28;20894;-77
2023/06/11 02:44:06;;;;;;;14.10;12.60;;;14.50;99.90;;;;;;4998883;28;20122;-76
2023/06/11 02:46:31;;;;;;;17.08;12.55;;;14.50;99.90;;;;;;4997082;28;20709;-76
2023/06/11 02:48:57;;;;;;;14.02;12.52;;;14.40;99.90;;;;;;4998914;28;20453;-75
2023/06/11 02:51:22;;;;;;;15.55;12.63;;;14.40;99.90;;;;;;4998008;28;20030;-76
2023/06/11 02:53:48;;;;;;;14.10;12.68;;;14.40;99.90;;;;;;4998081;28;20062;-76
2023/06/11 02:56:13;;;;;;;14.00;12.55;;;14.40;99.90;;;;;;4997151;28;20032;-78
2023/06/11 02:58:39;;;;;;;14.48;12.90;;;14.40;99.90;;;;;;4998393;28;20083;-76
2023/06/11 03:01:04;;;;;;;15.68;14.07;;;14.30;99.90;;;;;;4997975;28;20026;-76
2023/06/11 03:03:30;;;;;;;16.63;13.63;;;14.30;99.90;;;;;;4997281;28;20399;-76
2023/06/11 03:05:55;;;;;;;15.35;13.80;;;14.30;99.90;;;;;;4997933;28;20038;-76
2023/06/11 03:08:21;;;;;;;15.48;13.88;;;14.30;99.90;;;;;;4998130;28;20049;-76
2023/06/11 03:10:46;;;;;;;14.75;12.95;;;14.30;99.90;;;;;;4995886;28;20064;-75
2023/06/11 03:13:12;;;;;;;16.83;13.70;;;14.30;99.90;;;;;;4997439;28;20049;-76
2023/06/11 03:15:37;;;;;;;14.85;13.25;;;14.30;99.90;;;;;;4997217;28;20080;-77
2023/06/11 03:18:03;;;;;;;15.18;13.65;;;14.30;99.90;;;;;;4998170;28;20041;-77
2023/06/11 03:20:29;;;;;;;15.32;13.30;;;14.30;99.90;;;;;;4998060;28;20045;-76
2023/06/11 03:22:54;;;;;;;16.40;13.00;;;14.20;99.90;;;;;;4996135;28;20037;-77
2023/06/11 03:25:20;;;;;;;15.15;13.55;;;14.20;99.90;;;;;;4998223;28;21343;-76
2023/06/11 03:27:46;;;;;;;14.05;12.38;;;14.20;99.90;;;;;;4997094;28;20045;-77
2023/06/11 03:30:11;;;;;;;16.30;13.45;;;14.20;99.90;;;;;;4998067;28;20045;-76
2023/06/11 03:32:38;;;;;;;15.30;13.63;;;14.20;99.90;;;;;;4996204;28;20088;-76
2023/06/11 03:35:04;;;;;;;16.63;12.88;;;14.20;99.90;;;;;;4997245;28;20105;-76
2023/06/11 03:37:30;;;;;;;17.10;14.30;;;14.20;99.90;;;;;;4997322;28;20398;-76
2023/06/11 03:39:55;;;;;;;16.23;14.20;;;14.20;99.90;;;;;;4997392;28;20027;-76
2023/06/11 03:42:21;;;;;;;20.52;14.80;;;14.20;99.90;;;;;;4996704;28;20080;-76
2023/06/11 03:44:46;;;;;;;18.05;14.40;;;14.20;99.90;;;;;;4998486;28;20442;-76
2023/06/11 03:47:12;;;;;;;15.23;13.65;;;14.20;99.90;;;;;;4996695;28;20030;-78
2023/06/11 03:49:37;;;;;;;16.00;14.30;;;14.20;99.90;;;;;;4996781;28;20609;-77
2023/06/11 03:52:03;;;;;;;18.38;14.20;;;14.20;99.90;;;;;;4996743;28;20069;-75
2023/06/11 03:54:28;;;;;;;15.45;13.95;;;14.30;99.90;;;;;;4997065;28;20022;-76
2023/06/11 03:56:54;;;;;;;17.30;13.82;;;14.30;99.90;;;;;;4995785;28;20118;-76
2023/06/11 03:59:20;;;;;;;17.83;13.23;;;14.30;99.90;;;;;;4997338;28;20065;-76
2023/06/11 04:01:45;;;;;;;15.70;13.13;;;14.30;99.90;;;;;;4997026;28;20544;-76
2023/06/11 04:04:11;;;;;;;15.25;13.65;;;14.40;99.90;;;;;;4997575;28;20081;-76
2023/06/11 04:06:38;;;;;;;17.20;13.43;;;14.40;99.90;;;;;;4995859;28;20044;-76
2023/06/11 04:09:04;;;;;;;14.55;12.88;;;14.40;99.90;;;;;;4996807;28;20040;-77
2023/06/11 04:11:29;;;;;;;18.15;13.98;;;14.40;99.90;;;;;;4996557;28;20026;-76
2023/06/11 04:13:55;;;;;;;14.07;12.57;;;14.40;99.90;;;;;;4995375;28;20041;-76
2023/06/11 04:16:20;;;;;;;14.13;12.70;;;14.50;99.90;;;;;;4996356;28;20045;-76
2023/06/11 04:18:47;;;;;;;15.30;13.35;;;14.50;99.90;;;;;;4996599;28;20038;-76
2023/06/11 04:21:13;;;;;;;15.43;12.88;;;14.50;99.90;;;;;;4995401;28;20410;-76
2023/06/11 04:23:39;;;;;;;16.33;12.98;;;14.60;99.90;;;;;;4994875;28;20045;-76
2023/06/11 04:26:07;;;;;;;15.75;12.35;;;14.60;99.90;;;;;;4995132;28;21344;-78
2023/06/11 04:28:35;;;;;;;15.70;12.95;;;14.70;99.90;;;;;;4995826;28;20037;-78
2023/06/11 04:31:01;;;;;;;13.82;12.40;;;14.70;99.90;;;;;;4995274;28;20077;-76
2023/06/11 04:33:36;;;;;;;15.00;12.88;;;14.80;99.90;;;;;;4995784;28;20121;-77
2023/06/11 04:36:04;;;;;;;14.95;12.10;;;14.80;99.90;;;;;;4995976;28;20053;-77
2023/06/11 04:38:31;;;;;;;13.85;12.45;;;14.90;99.90;;;;;;4998097;28;20033;-76
2023/06/11 04:40:57;;;;;;;15.45;13.55;;;14.90;99.90;;;;;;4997671;28;20026;-79
2023/06/11 04:43:23;;;;;;;17.42;13.65;;;15.00;99.90;;;;;;4998660;28;20602;-76
2023/06/11 04:45:49;;;;;;;14.82;13.32;;;15.00;99.90;;;;;;4997036;28;20042;-77
2023/06/11 04:48:20;;;;;;;14.25;12.80;;;15.10;99.90;;;;;;4997235;28;20127;-76
2023/06/11 04:50:45;;;;;;;14.18;12.70;;;15.10;99.90;;;;;;4996228;28;20037;-76
2023/06/11 04:53:12;;;;;;;13.50;12.05;;;15.20;99.90;;;;;;4995257;28;20413;-76
2023/06/11 04:55:40;;;;;;;15.45;12.95;;;15.30;99.90;;;;;;4995977;28;20034;-75
2023/06/11 04:58:06;;;;;;;13.70;12.05;;;15.40;99.90;;;;;;4997000;28;20087;-76
2023/06/11 05:00:32;;;;;;;15.02;12.90;;;15.40;99.90;;;;;;4995208;28;20026;-77
2023/06/11 05:02:58;;;;;;;14.20;12.45;;;15.40;99.90;;;;;;4995867;28;20021;-79
2023/06/11 05:05:24;;;;;;;14.88;13.27;;;15.50;99.90;;;;;;4996694;28;20018;-79
2023/06/11 05:07:51;;;;;;;13.52;12.20;;;15.60;99.90;;;;;;4997309;28;20038;-78
2023/06/11 05:10:18;;;;;;;15.90;11.95;;;15.70;99.90;;;;;;4995023;28;20033;-78
2023/06/11 05:12:43;;;;;;;18.27;12.68;;;15.70;99.90;;;;;;4996638;28;20092;-69
2023/06/11 05:15:09;;;;;;;13.38;11.98;;;15.80;99.90;;;;;;4999432;28;20037;-78
2023/06/11 05:17:35;;;;;;;15.88;12.82;;;15.90;99.90;;;;;;4996011;28;20037;-77
2023/06/11 05:20:01;;;;;;;13.25;11.95;;;16.00;99.90;;;;;;4998313;28;20034;-78
2023/06/11 05:22:26;;;;;;;12.18;10.85;;;16.00;99.90;;;;;;4998734;28;20042;-80
2023/06/11 05:24:52;;;;;;;12.65;11.07;;;16.10;99.90;;;;;;4999103;28;20030;-80
2023/06/11 05:27:18;;;;;;;12.65;11.35;;;16.30;99.90;;;;;;4998901;28;20038;-79
2023/06/11 05:29:43;;;;;;;12.23;10.60;;;16.30;99.90;;;;;;4998889;28;20175;-79
2023/06/11 05:32:09;;;;;;;12.88;10.52;;;16.40;99.90;;;;;;5001124;28;20038;-80
2023/06/11 05:34:37;;;;;;;12.18;10.80;;;16.50;99.90;;;;;;5004394;28;20029;-80
2023/06/11 05:37:02;;;;;;;11.23;10.13;;;16.60;99.90;;;;;;5005213;28;20026;-79
2023/06/11 05:39:28;;;;;;;12.13;10.45;;;16.80;99.90;;;;;;5004910;28;20033;-79
2023/06/11 05:41:53;;;;;;;12.80;10.40;;;16.90;99.90;;;;;;5005128;28;20029;-79
2023/06/11 05:44:19;;;;;;;10.30;9.07;;;17.00;99.90;;;;;;5005094;28;20041;-79
2023/06/11 05:46:45;;;;;;;10.98;9.20;;;17.00;99.90;;;;;;5004390;28;20086;-79
2023/06/11 05:49:10;;;;;;;9.32;8.25;;;17.20;99.90;;;;;;5001171;28;20121;-79
2023/06/11 05:51:36;;;;;;;12.13;8.90;;;17.30;99.90;;;;;;4999426;28;20034;-79
2023/06/11 05:54:01;;;;;;;11.75;8.57;;;17.40;99.90;;;;;;5001129;28;20040;-79
2023/06/11 05:56:27;;;;;;;13.18;8.40;;;17.50;99.90;;;;;;5002082;28;20105;-80
2023/06/11 05:58:52;;;;;;;10.13;8.07;;;17.50;99.90;;;;;;5000771;28;20030;-78
2023/06/11 06:01:18;;;;;;;10.60;7.10;;;17.60;99.90;;;;;;4999233;28;20749;-81
2023/06/11 06:03:43;;;;;;;10.10;7.82;;;17.80;99.90;;;;;;5001211;28;20482;-81
2023/06/11 06:06:09;;;;;;;7.82;7.00;;;17.80;99.90;;;;;;4999898;28;20023;-79
2023/06/11 06:08:35;;;;;;;8.48;7.40;;;18.00;99.90;;;;;;5001211;28;20030;-82
2023/06/11 06:11:01;;;;;;;8.32;7.53;;;18.10;99.90;;;;;;5000960;28;20033;-79
2023/06/11 06:13:27;;;;;;;10.50;6.72;;;18.20;99.90;;;;;;5000171;28;20123;-81
2023/06/11 06:15:52;;;;;;;7.72;6.93;;;18.30;99.90;;;;;;4998813;28;20455;-81
2023/06/11 06:18:18;;;;;;;9.07;6.65;;;18.40;99.90;;;;;;5003133;28;20150;-81
2023/06/11 06:20:44;;;;;;;9.40;6.80;;;18.50;99.90;;;;;;4999833;28;20041;-80
2023/06/11 06:23:10;;;;;;;7.22;6.05;;;18.50;99.90;;;;;;5000825;28;20037;-81
2023/06/11 06:25:37;;;;;;;7.53;6.65;;;18.60;99.90;;;;;;5000292;28;20029;-81
2023/06/11 06:28:06;;;;;;;8.57;6.03;;;18.60;99.90;;;;;;5000988;28;20038;-81
2023/06/11 06:30:33;;;;;;;8.95;6.97;;;18.70;99.90;;;;;;4999899;28;20124;-81
2023/06/11 06:32:59;;;;;;;8.02;6.55;;;18.80;99.90;;;;;;4998406;28;20038;-82
2023/06/11 06:35:25;;;;;;;7.95;6.15;;;18.90;99.90;;;;;;5000172;28;20140;-78
2023/06/11 06:37:51;;;;;;;11.85;7.45;;;18.90;99.90;;;;;;5001482;28;20094;-81
2023/06/11 06:40:16;;;;;;;7.18;6.32;;;19.00;99.90;;;;;;5001879;28;20053;-81
2023/06/11 06:42:42;;;;;;;9.32;6.30;;;19.10;99.90;;;;;;5001754;28;20041;-81
2023/06/11 06:45:08;;;;;;;9.02;5.60;;;19.20;99.90;;;;;;4996416;28;20120;-80
2023/06/11 06:47:34;;;;;;;7.22;5.93;;;19.30;99.90;;;;;;5003676;28;20034;-80
2023/06/11 06:49:59;;;;;;;8.05;6.10;;;19.40;99.90;;;;;;4999706;28;20045;-79
2023/06/11 06:52:25;;;;;;;10.00;6.70;;;19.60;99.90;;;;;;5001739;28;20046;-80
2023/06/11 06:54:51;;;;;;;9.48;6.07;;;19.50;99.90;;;;;;5000573;28;20029;-79
2023/06/11 06:57:17;;;;;;;11.07;6.32;;;19.50;99.90;;;;;;5001370;28;20038;-80
2023/06/11 06:59:43;;;;;;;10.40;6.95;;;19.50;99.90;;;;;;4998769;28;20077;-81
2023/06/11 07:02:09;;;;;;;7.05;6.28;;;19.50;99.90;;;;;;5003609;28;20124;-80
2023/06/11 07:04:35;;;;;;;9.25;6.32;;;19.50;99.90;;;;;;5003094;28;20026;-81
2023/06/11 07:07:00;;;;;;;8.82;6.32;;;19.50;99.90;;;;;;5000775;28;20038;-80
2023/06/11 07:09:26;;;;;;;7.30;6.03;;;19.50;99.90;;;;;;5002376;28;20057;-80
2023/06/11 07:11:52;;;;;;;6.78;6.03;;;19.50;99.90;;;;;;5002631;28;20045;-81
2023/06/11 07:14:18;;;;;;;7.05;6.00;;;19.50;99.90;;;;;;5004588;28;20041;-81
2023/06/11 07:16:44;;;;;;;8.07;6.30;;;19.60;99.90;;;;;;4999841;28;20041;-81
2023/06/11 07:19:10;;;;;;;8.45;6.32;;;19.70;99.90;;;;;;5000599;28;20047;-80
2023/06/11 07:21:36;;;;;;;8.43;6.18;;;19.80;99.90;;;;;;5002905;28;20088;-83
2023/06/11 07:24:04;;;;;;;7.82;6.35;;;19.80;99.90;;;;;;5003257;28;20047;-82
2023/06/11 07:26:30;;;;;;;9.52;5.85;;;19.80;99.90;;;;;;4999727;28;20108;-80
2023/06/11 07:28:56;;;;;;;7.63;6.13;;;19.80;99.90;;;;;;5000617;28;20490;-83
2023/06/11 07:31:21;;;;;;;8.05;5.85;;;19.80;99.90;;;;;;5002484;28;20076;-83
2023/06/11 07:33:48;;;;;;;7.18;5.25;;;19.80;99.90;;;;;;5002295;28;20046;-81
2023/06/11 07:36:15;;;;;;;10.23;5.57;;;19.90;99.90;;;;;;4998623;28;20057;-82
2023/06/11 07:38:42;;;;;;;8.93;5.70;;;20.00;99.90;;;;;;5000588;28;20037;-80
2023/06/11 07:41:08;;;;;;;8.00;5.45;;;20.10;99.90;;;;;;5000268;28;20594;-82
2023/06/11 07:43:33;;;;;;;7.07;5.95;;;20.10;99.90;;;;;;5000560;28;20510;-80
2023/06/11 07:45:59;;;;;;;5.68;5.05;;;20.10;99.90;;;;;;4998745;28;20058;-82
2023/06/11 07:48:24;;;;;;;6.40;5.03;;;20.20;99.90;;;;;;5000809;28;20870;-82
2023/06/11 07:50:52;;;;;;;10.35;5.75;;;20.40;99.90;;;;;;5000754;28;20041;-80
2023/06/11 07:53:19;;;;;;;6.25;5.07;;;20.60;99.90;;;;;;5000362;28;20713;-81
2023/06/11 07:55:45;;;;;;;7.95;4.72;;;20.80;99.90;;;;;;5000656;28;20084;-82
2023/06/11 07:58:10;;;;;;;8.43;4.60;;;20.90;99.90;;;;;;4999104;28;20041;-81
2023/06/11 08:00:36;;;;;;;6.95;5.32;;;21.00;99.90;;;;;;4999959;28;20041;-82
2023/06/11 08:03:01;;;;;;;9.43;4.88;;;21.10;99.90;;;;;;5000053;28;20410;-84
2023/06/11 08:05:27;;;;;;;6.30;5.15;;;21.10;99.90;;;;;;4980892;28;20025;-81
2023/06/11 08:07:52;;;;;;;5.35;4.65;;;21.20;99.90;;;;;;4997752;28;20375;-82
2023/06/11 08:10:18;;;;;;;6.43;4.95;;;21.10;99.90;;;;;;4999138;28;20030;-82
2023/06/11 08:12:43;;;;;;;6.00;5.07;;;21.20;99.90;;;;;;4998005;28;20038;-82
2023/06/11 08:15:10;;;;;;;8.43;4.78;;;21.10;99.90;;;;;;4998718;28;20026;-80
2023/06/11 08:17:35;;;;;;;8.98;4.78;;;21.00;99.90;;;;;;4999178;28;20117;-87
2023/06/11 08:20:02;;;;;;;6.65;4.90;;;21.00;99.90;;;;;;4998461;28;20043;-82
2023/06/11 08:22:28;;;;;;;6.78;5.07;;;21.10;99.90;;;;;;4998253;28;20037;-82
2023/06/11 08:24:53;;;;;;;4.85;4.15;;;21.10;99.90;;;;;;5000027;28;20026;-80
2023/06/11 08:27:19;;;;;;;6.25;5.00;;;21.10;99.90;;;;;;4999090;28;20036;-83
2023/06/11 08:29:44;;;;;;;6.40;4.30;;;21.20;99.90;;;;;;5000492;28;20034;-83
2023/06/11 08:32:10;;;;;;;5.70;4.80;;;21.30;99.90;;;;;;4999903;28;20042;-83
2023/06/11 08:34:35;;;;;;;7.68;4.50;;;21.20;99.90;;;;;;5000017;28;21089;-80
2023/06/11 08:37:01;;;;;;;4.95;4.45;;;21.20;99.90;;;;;;4998665;28;20044;-82
2023/06/11 08:39:27;;;;;;;6.82;4.60;;;21.30;99.90;;;;;;4999603;28;20026;-81
2023/06/11 08:41:53;;;;;;;7.15;4.70;;;21.40;99.90;;;;;;4999189;28;20034;-80
2023/06/11 08:44:20;;;;;;;8.88;4.88;;;21.40;99.90;;;;;;4998414;28;20037;-80
2023/06/11 08:46:49;;;;;;;7.50;4.07;;;21.50;99.90;;;;;;4998563;28;20038;-82
2023/06/11 08:49:22;;;;;;;7.22;4.43;;;21.70;99.90;;;;;;5000078;28;20030;-82
2023/06/11 08:51:48;;;;;;;6.72;4.60;;;21.80;99.90;;;;;;4999345;28;20476;-82
2023/06/11 08:54:15;;;;;;;5.50;4.28;;;21.80;99.90;;;;;;5000419;28;20034;-82
2023/06/11 08:56:41;;;;;;;6.22;4.63;;;21.80;99.90;;;;;;4999894;28;20042;-82
2023/06/11 08:59:07;;;;;;;7.47;4.07;;;21.80;99.90;;;;;;5000224;28;20026;-81
2023/06/11 09:01:33;;;;;;;5.50;4.30;;;21.70;99.90;;;;;;5000290;28;20027;-82
2023/06/11 09:03:59;;;;;;;6.82;4.10;;;21.70;99.90;;;;;;4998237;28;21398;-82
2023/06/11 09:06:24;;;;;;;7.65;4.32;;;21.70;99.90;;;;;;4998954;28;20033;-83
2023/06/11 09:09:07;;;;;;;7.32;3.45;;;21.80;99.90;;;;;;4998862;28;20726;-83
2023/06/11 09:11:38;;;;;;;5.30;3.80;;;21.90;99.90;;;;;;4999548;28;20127;-81
2023/06/11 09:14:05;;;;;;;4.70;4.20;;;21.90;99.90;;;;;;5001410;28;20034;-82
2023/06/11 09:16:42;;;;;;;4.82;4.00;;;22.00;99.90;;;;;;5001366;28;20037;-83
2023/06/11 09:19:19;;;;;;;5.15;4.13;;;22.10;99.90;;;;;;4997375;28;20029;-80
2023/06/11 09:21:49;;;;;;;6.13;3.80;;;22.20;99.90;;;;;;4995265;28;20040;-80
2023/06/11 09:24:18;;;;;;;3.80;3.25;;;22.20;99.90;;;;;;4998400;28;20064;-80
2023/06/11 09:26:58;;;;;;;7.93;4.82;;;22.40;99.90;;;;;;4997247;28;20065;-80
2023/06/11 09:29:25;;;;;;;8.40;3.75;;;22.50;99.90;;;;;;4999162;28;20490;-81
2023/06/11 09:32:08;;;;;;;5.68;4.00;;;22.60;99.90;;;;;;4998678;28;20041;-78
2023/06/11 09:34:34;;;;;;;5.72;3.53;;;22.60;99.90;;;;;;4997259;28;20029;-80
2023/06/11 09:37:03;;;;;;;7.82;3.53;;;22.50;99.90;;;;;;4998181;28;20041;-81
2023/06/11 09:39:29;;;;;;;5.93;3.50;;;22.70;99.90;;;;;;4998379;28;20037;-81
2023/06/11 09:41:55;;;;;;;4.97;3.47;;;23.00;99.90;;;;;;5000406;28;20534;-80
2023/06/11 09:44:23;;;;;;;4.35;3.40;;;23.20;99.90;;;;;;4998360;28;20125;-81
2023/06/11 09:46:49;;;;;;;8.80;3.70;;;23.40;99.90;;;;;;5001142;28;20057;-81
2023/06/11 09:49:16;;;;;;;9.35;4.35;;;23.70;99.90;;;;;;5000128;28;21002;-80
2023/06/11 09:51:43;;;;;;;5.70;3.80;;;24.20;99.90;;;;;;4999206;28;20038;-80
2023/06/11 09:54:10;;;;;;;4.43;3.20;;;24.50;99.90;;;;;;4999413;28;20057;-81
2023/06/11 09:56:37;;;;;;;5.57;4.22;;;24.60;99.90;;;;;;4998133;28;20126;-81
2023/06/11 09:59:03;;;;;;;3.95;3.03;;;24.60;99.90;;;;;;5001921;28;20064;-82
2023/06/11 10:01:29;;;;;;;4.60;3.60;;;24.80;99.90;;;;;;5002447;28;20030;-80
2023/06/11 10:03:59;;;;;;;6.25;3.45;;;25.00;99.90;;;;;;5001465;28;20034;-80
2023/06/11 10:06:32;;;;;;;4.57;3.58;;;25.20;99.90;;;;;;4998690;28;20030;-80
2023/06/11 10:09:01;;;;;;;5.85;3.90;;;25.40;99.90;;;;;;5001712;28;20038;-80
2023/06/11 10:11:30;;;;;;;5.28;3.78;;;25.30;99.90;;;;;;4999085;28;20050;-81
2023/06/11 10:14:01;;;;;;;7.32;3.78;;;25.40;99.90;;;;;;4999369;28;20044;-82
2023/06/11 10:16:27;;;;;;;4.80;3.72;;;25.40;99.90;;;;;;4998066;28;20030;-82
2023/06/11 10:19:05;;;;;;;7.18;3.53;;;25.50;99.90;;;;;;4998703;28;20114;-81
2023/06/11 10:21:38;;;;;;;4.15;2.90;;;25.60;99.90;;;;;;5003071;28;20058;-81
2023/06/11 10:24:04;;;;;;;6.00;3.47;;;25.80;99.90;;;;;;5002871;28;20038;-81
2023/06/11 10:26:35;;;;;;;4.38;3.50;;;25.70;99.90;;;;;;5003117;28;20161;-81
2023/06/11 10:29:01;;;;;;;5.82;3.20;;;25.70;99.90;;;;;;5003528;28;20945;-82
2023/06/11 10:31:41;;;;;;;4.30;3.00;;;25.50;99.90;;;;;;5003293;28;20034;-81
2023/06/11 10:34:07;;;;;;;5.50;4.13;;;25.50;99.90;;;;;;5002952;28;20414;-82
2023/06/11 10:36:35;;;;;;;5.25;3.40;;;25.40;99.90;;;;;;5003156;28;20044;-82
2023/06/11 10:39:05;;;;;;;4.63;3.30;;;25.60;99.90;;;;;;5006864;28;20774;-83
2023/06/11 10:41:30;;;;;;;4.82;2.83;;;25.80;99.90;;;;;;5002068;28;20058;-82
2023/06/11 10:43:57;;;;;;;4.65;2.90;;;25.70;99.90;;;;;;5005999;28;20029;-81
2023/06/11 10:46:23;;;;;;;5.43;3.00;;;25.70;99.90;;;;;;5006311;28;20138;-83
2023/06/11 10:48:51;;;;;;;4.80;3.55;;;25.80;99.90;;;;;;5006052;28;20117;-82
2023/06/11 10:51:17;;;;;;;5.32;3.40;;;26.00;99.90;;;;;;5003170;28;20749;-82
2023/06/11 10:53:43;;;;;;;4.97;2.83;;;26.20;99.90;;;;;;5002392;28;20125;-79
2023/06/11 10:56:13;;;;;;;5.03;3.10;;;26.30;99.90;;;;;;5004893;28;20479;-80
2023/06/11 10:58:39;;;;;;;4.78;3.25;;;26.20;99.90;;;;;;5003619;28;20042;-80
2023/06/11 11:01:07;;;;;;;4.95;2.80;;;26.20;99.90;;;;;;5004701;28;20178;-80
2023/06/11 11:03:33;;;;;;;4.05;2.78;;;26.10;99.90;;;;;;5004096;28;21453;-80
2023/06/11 11:05:59;;;;;;;3.47;2.97;;;26.10;99.90;;;;;;5004231;28;20030;-79
2023/06/11 11:08:25;;;;;;;3.55;2.88;;;26.10;99.90;;;;;;5004368;28;20544;-80
2023/06/11 11:11:01;;;;;;;4.47;2.65;;;26.20;99.90;;;;;;5004421;28;20037;-80
2023/06/11 11:13:29;;;;;;;5.45;2.85;;;26.30;99.90;;;;;;5004786;28;20073;-80
2023/06/11 11:15:54;;;;;;;6.88;2.67;;;26.20;99.90;;;;;;5006218;28;20126;-82
2023/06/11 11:18:21;;;;;;;3.80;2.88;;;26.20;99.90;;;;;;5009817;28;20061;-81
2023/06/11 11:20:47;;;;;;;3.03;2.72;;;26.20;99.90;;;;;;5006687;28;20021;-80
2023/06/11 11:23:12;;;;;;;4.38;2.67;;;26.20;99.90;;;;;;5002517;28;20269;-80
2023/06/11 11:25:41;;;;;;;7.65;2.80;;;26.20;99.90;;;;;;5002651;28;20026;-80
2023/06/11 11:28:06;;;;;;;6.78;2.90;;;26.30;99.90;;;;;;5003408;28;20034;-79
2023/06/11 11:30:32;;;;;;;2.97;2.50;;;26.60;99.90;;;;;;5001395;28;20040;-79
2023/06/11 11:32:58;;;;;;;4.63;2.80;;;26.70;99.90;;;;;;5001091;28;20050;-80
2023/06/11 11:35:26;;;;;;;4.75;2.80;;;26.80;99.90;;;;;;5000860;28;20022;-81
2023/06/11 11:37:54;;;;;;;3.88;2.90;;;26.70;99.90;;;;;;5000878;28;20048;-79
2023/06/11 11:40:21;;;;;;;3.45;2.78;;;26.70;99.90;;;;;;4999476;28;20498;-78
2023/06/11 11:42:50;;;;;;;3.55;2.85;;;26.60;99.90;;;;;;5000894;28;20036;-81
2023/06/11 11:45:17;;;;;;;4.65;2.90;;;26.80;99.90;;;;;;5000374;28;20104;-80
2023/06/11 11:47:51;;;;;;;3.95;3.00;;;26.90;99.90;;;;;;4994789;28;20109;-79
2023/06/11 11:50:27;;;;;;;3.50;2.50;;;27.00;99.70;;;;;;5000076;28;20148;-80
2023/06/11 11:53:09;;;;;;;6.65;2.78;;;26.90;99.90;;;;;;5002136;28;20049;-80
2023/06/11 11:55:37;;;;;;;5.03;3.00;;;26.80;99.00;;;;;;4998158;28;20104;-79
2023/06/11 11:58:07;;;;;;;5.55;3.00;;;26.50;99.40;;;;;;4999942;28;20044;-80
2023/06/11 12:00:34;;;;;;;3.40;3.10;;;26.50;99.90;;;;;;5001696;28;20049;-81
2023/06/11 12:03:09;;;;;;;5.55;2.92;;;26.60;99.80;;;;;;4999095;28;20026;-80
2023/06/11 12:05:38;;;;;;;3.92;2.97;;;26.90;98.00;;;;;;4998896;28;20030;-81
2023/06/11 12:08:05;;;;;;;4.35;3.00;;;27.10;98.10;;;;;;4999871;28;21334;-80
2023/06/11 12:10:31;;;;;;;5.53;3.08;;;27.10;97.30;;;;;;5000359;28;20152;-81
2023/06/11 12:12:58;;;;;;;5.15;2.90;;;27.20;97.50;;;;;;5000225;28;20038;-83
2023/06/11 12:15:24;;;;;;;4.85;2.90;;;27.50;97.80;;;;;;5002345;28;20107;-80
2023/06/11 12:17:51;;;;;;;4.18;2.85;;;27.60;94.90;;;;;;5001231;28;20030;-81
2023/06/11 12:20:17;;;;;;;4.72;3.00;;;27.60;94.90;;;;;;5001539;28;20033;-82
2023/06/11 12:22:42;;;;;;;3.70;2.80;;;27.60;94.40;;;;;;5000379;28;20034;-83
2023/06/11 12:25:08;;;;;;;4.90;2.70;;;27.60;94.10;;;;;;5001981;28;21388;-82
2023/06/11 12:27:35;;;;;;;4.18;2.70;;;27.70;93.30;;;;;;5004317;28;21019;-81
2023/06/11 12:30:01;;;;;;;4.35;3.00;;;28.00;93.30;;;;;;5003094;28;20093;-81
2023/06/11 12:32:29;;;;;;;7.63;3.03;;;28.10;93.70;;;;;;4999696;28;21159;-81
2023/06/11 12:34:55;;;;;;;6.90;3.65;;;28.30;93.80;;;;;;5004447;28;20030;-81
2023/06/11 12:37:21;;;;;;;3.92;3.00;;;28.30;92.70;;;;;;5004833;28;20403;-82